Time;durP1;ratioP1;P1;durP2;ratioP2;P2;SDS_P1;SDS_P2;PMS_P1;PMS_P2;Temp;Humidity;BMP_temperature;BMP_pressure;BME280_temperature;BME280_humidity;BME280_pressure;Samples;Min_cycle;Max_cycle;Signal;HPM_P1;HPM_P2
2021/03/28 00:01:13;;;;;;;4.15;2.10;;;;;;;10.01;81.11;100248.56;5065595;28;20048;-53
2021/03/28 00:03:44;;;;;;;10.73;1.15;;;;;;;10.03;80.64;100242.69;5057401;28;20033;-53
2021/03/28 00:06:28;;;;;;;4.18;1.27;;;;;;;10.03;80.86;100251.81;5066838;28;20041;-50
2021/03/28 00:09:16;;;;;;;5.75;1.40;;;;;;;10.04;81.02;100239.56;5067710;28;20433;-51
2021/03/28 00:12:00;;;;;;;3.38;0.90;;;;;;;10.04;80.97;100224.94;5067314;28;20079;-47
2021/03/28 00:14:36;;;;;;;3.70;0.80;;;;;;;10.05;80.73;100237.59;5065866;28;20040;-48
2021/03/28 00:17:25;;;;;;;2.75;1.00;;;;;;;10.06;80.74;100233.69;5069206;28;20036;-48
2021/03/28 00:20:24;;;;;;;3.65;0.93;;;;;;;10.05;80.98;100249.47;5067984;28;20093;-50
2021/03/28 00:22:56;;;;;;;4.18;0.98;;;;;;;10.06;80.40;100233.69;5052676;28;20055;-49
2021/03/28 00:25:34;;;;;;;;;;;;;;;10.03;81.24;100228.88;5051787;28;20442;-48
2021/03/28 00:28:06;;;;;;;2.03;0.90;;;;;;;10.04;80.31;100230.47;5067543;28;19920;-46
2021/03/28 00:30:40;;;;;;;2.28;0.50;;;;;;;10.04;80.54;100227.69;5060775;28;20047;-52
2021/03/28 00:33:09;;;;;;;2.42;0.55;;;;;;;10.03;80.14;100237.97;5058187;28;20527;-50
2021/03/28 00:35:54;;;;;;;6.03;1.58;;;;;;;10.02;80.44;100228.06;5067766;28;20049;-50
2021/03/28 00:38:27;;;;;;;1.10;0.40;;;;;;;10.01;80.59;100218.16;5065812;28;20040;-48
2021/03/28 00:41:08;;;;;;;0.77;0.45;;;;;;;10.04;80.77;100222.97;5063803;28;20044;-46
2021/03/28 00:44:04;;;;;;;0.85;0.40;;;;;;;10.07;80.45;100230.56;5062633;28;20040;-49
2021/03/28 00:46:49;;;;;;;1.85;0.50;;;;;;;10.09;80.37;100233.78;5049406;28;20489;-47
2021/03/28 00:49:35;;;;;;;1.35;0.40;;;;;;;10.11;80.72;100231.44;5059000;28;20114;-49
2021/03/28 00:52:21;;;;;;;2.83;0.40;;;;;;;10.11;80.65;100231.44;5048805;28;20130;-49
2021/03/28 00:55:01;;;;;;;0.77;0.40;;;;;;;10.11;80.98;100222.38;5049315;28;20040;-47
2021/03/28 00:57:39;;;;;;;1.75;0.40;;;;;;;10.10;80.90;100235.41;5057312;28;20428;-50
2021/03/28 01:00:20;;;;;;;3.75;0.90;;;;;;;10.09;81.06;100217.19;5068236;28;20044;-47
2021/03/28 01:03:02;;;;;;;2.75;0.30;;;;;;;10.10;80.89;100218.78;5052694;28;20493;-49
2021/03/28 01:05:37;;;;;;;5.07;0.40;;;;;;;10.14;80.95;100208.66;5060475;28;20044;-52
2021/03/28 01:08:16;;;;;;;2.08;0.38;;;;;;;10.15;81.02;100207.50;5047480;28;20055;-47
2021/03/28 01:11:04;;;;;;;0.88;0.40;;;;;;;10.16;80.55;100200.00;5054188;28;20464;-50
2021/03/28 01:14:02;;;;;;;3.28;1.13;;;;;;;10.12;81.01;100197.13;5067499;28;20041;-47
2021/03/28 01:16:35;;;;;;;1.90;0.52;;;;;;;10.14;80.79;100196.81;5050147;28;20470;-47
2021/03/28 01:19:22;;;;;;;4.38;1.17;;;;;;;10.16;80.85;100198.06;5058602;28;20052;-51
2021/03/28 01:22:16;;;;;;;1.13;0.63;;;;;;;10.23;81.08;100186.34;5069033;28;20044;-49
2021/03/28 01:24:48;;;;;;;8.25;1.77;;;;;;;10.28;80.72;100170.28;5068124;28;20137;-50
2021/03/28 01:27:29;;;;;;;8.15;1.23;;;;;;;10.31;80.73;100186.19;5067314;28;20048;-49
2021/03/28 01:29:58;;;;;;;8.57;2.08;;;;;;;10.33;80.47;100171.97;5066340;28;20094;-50
2021/03/28 01:32:34;;;;;;;7.45;2.08;;;;;;;10.34;80.63;100184.66;5069373;28;20059;-48
2021/03/28 01:35:15;;;;;;;11.48;1.73;;;;;;;10.35;80.39;100176.00;5070410;28;20123;-47
2021/03/28 01:38:19;;;;;;;5.32;1.25;;;;;;;10.36;80.62;100172.06;5072219;28;20052;-51
2021/03/28 01:40:51;;;;;;;7.78;1.52;;;;;;;10.36;80.30;100180.38;5071261;28;20436;-48
2021/03/28 01:43:44;;;;;;;6.55;1.85;;;;;;;10.38;80.64;100168.94;5069642;28;20060;-47
2021/03/28 01:46:29;;;;;;;6.70;1.75;;;;;;;10.39;80.33;100165.03;5074881;28;20040;-48
2021/03/28 01:49:12;;;;;;;5.13;2.53;;;;;;;10.40;80.38;100166.66;5074481;28;20056;-47
2021/03/28 01:51:57;;;;;;;3.38;1.25;;;;;;;10.39;80.30;100165.84;5073493;28;20040;-48
2021/03/28 01:54:48;;;;;;;9.50;2.28;;;;;;;10.43;80.66;100167.88;5074815;28;20045;-47
2021/03/28 01:57:31;;;;;;;8.93;2.65;;;;;;;10.45;80.28;100179.41;5074572;28;20036;-50
2021/03/28 02:00:38;;;;;;;10.68;2.05;;;;;;;10.46;80.71;100189.31;5072583;28;20050;-49
2021/03/28 02:03:22;;;;;;;6.03;1.20;;;;;;;10.49;80.19;100178.31;5053260;28;20072;-47
2021/03/28 02:05:54;;;;;;;2.72;1.58;;;;;;;10.51;80.31;100181.53;5065947;28;20075;-50
2021/03/28 02:08:33;;;;;;;3.13;1.15;;;;;;;10.56;80.41;100208.16;5074447;28;20071;-47
2021/03/28 02:11:38;;;;;;;5.18;1.30;;;;;;;10.55;80.42;100168.59;5063651;28;20157;-47
2021/03/28 02:14:10;;;;;;;5.53;0.95;;;;;;;10.58;80.16;100161.53;5074364;28;20048;-48
2021/03/28 02:16:48;;;;;;;3.50;1.02;;;;;;;10.60;80.14;100175.81;5074124;28;20485;-50
2021/03/28 02:19:22;;;;;;;7.43;1.27;;;;;;;10.60;79.88;100181.34;5074378;28;20080;-49
2021/03/28 02:22:06;;;;;;;5.70;1.20;;;;;;;10.57;80.00;100182.06;5072306;28;20516;-50
2021/03/28 02:24:54;;;;;;;5.57;1.05;;;;;;;10.54;80.27;100197.41;5073018;28;20040;-48
2021/03/28 02:27:37;;;;;;;6.13;1.35;;;;;;;10.52;80.27;100185.91;5073668;28;20052;-50
2021/03/28 02:30:16;;;;;;;;;;;;;;;10.48;80.78;100187.00;5074067;28;20048;-52
2021/03/28 02:32:48;;;;;;;4.53;1.27;;;;;;;10.50;80.24;100187.44;5073856;28;20282;-47
2021/03/28 02:35:27;;;;;;;2.38;0.98;;;;;;;10.52;80.44;100185.09;5073234;28;20051;-48
2021/03/28 02:38:21;;;;;;;5.05;1.30;;;;;;;10.53;80.45;100172.88;5073037;28;20478;-47
2021/03/28 02:41:12;;;;;;;4.00;1.25;;;;;;;10.55;80.23;100173.31;5072353;28;20402;-52
2021/03/28 02:44:11;;;;;;;9.13;1.48;;;;;;;10.53;79.91;100182.00;5071639;28;20731;-49
2021/03/28 02:47:08;;;;;;;6.85;1.00;;;;;;;10.52;80.08;100174.03;5052147;28;20087;-49
2021/03/28 02:49:59;;;;;;;5.47;1.92;;;;;;;10.48;80.25;100173.97;5049465;28;20056;-50
2021/03/28 02:52:45;;;;;;;3.53;0.90;;;;;;;10.47;80.25;100188.13;5051765;28;20086;-51
2021/03/28 02:55:12;;;;;;;9.30;1.33;;;;;;;10.48;79.95;100189.75;5051311;28;20056;-47
2021/03/28 02:57:45;;;;;;;5.00;1.48;;;;;;;10.46;79.98;100176.25;5072469;28;20122;-48
2021/03/28 03:00:44;;;;;;;11.95;1.70;;;;;;;10.44;80.43;100183.31;5073805;28;20052;-47
2021/03/28 03:03:30;;;;;;;10.68;2.35;;;;;;;10.43;80.19;100190.03;5073288;28;20041;-48
2021/03/28 03:06:15;;;;;;;4.55;1.30;;;;;;;10.43;79.92;100188.06;5073461;28;20094;-49
2021/03/28 03:08:51;;;;;;;7.75;1.38;;;;;;;10.42;80.05;100185.63;5074069;28;20044;-47
2021/03/28 03:11:47;;;;;;;7.25;2.05;;;;;;;10.39;80.56;100193.50;5061877;28;20125;-48
2021/03/28 03:14:30;;;;;;;13.60;2.65;;;;;;;10.39;80.31;100190.72;5073273;28;20086;-50
2021/03/28 03:17:08;;;;;;;8.05;1.50;;;;;;;10.41;80.16;100201.44;5073319;28;20044;-49
2021/03/28 03:19:56;;;;;;;8.48;1.95;;;;;;;10.40;80.25;100192.31;5073015;28;20072;-48
2021/03/28 03:22:57;;;;;;;12.15;3.15;;;;;;;10.40;80.25;100200.63;5072950;28;20421;-51
2021/03/28 03:26:08;;;;;;;7.13;1.85;;;;;;;10.42;80.18;100191.19;5072602;28;20040;-48
2021/03/28 03:29:12;;;;;;;14.45;2.65;;;;;;;10.45;80.26;100207.06;5056643;28;20064;-46
2021/03/28 03:32:11;;;;;;;6.00;1.45;;;;;;;10.50;80.11;100209.56;5072898;28;20041;-46
2021/03/28 03:34:49;;;;;;;6.78;1.60;;;;;;;10.55;79.76;100212.06;5073023;28;20048;-46
2021/03/28 03:37:21;;;;;;;7.82;2.05;;;;;;;10.54;80.06;100204.94;5055923;28;20509;-48
2021/03/28 03:40:06;;;;;;;16.85;2.08;;;;;;;10.56;80.04;100230.28;5073107;28;20494;-47
2021/03/28 03:43:26;;;;;;;5.68;1.48;;;;;;;10.57;79.83;100226.34;5070314;28;20537;-47
2021/03/28 03:46:02;;;;;;;10.20;2.00;;;;;;;10.57;79.92;100221.63;5026046;28;20054;-49
2021/03/28 03:48:59;;;;;;;7.13;2.30;;;;;;;10.57;80.02;100221.63;5066615;28;20505;-49
2021/03/28 03:51:34;;;;;;;14.10;2.42;;;;;;;10.58;79.62;100225.19;5072540;28;20508;-47
2021/03/28 03:54:04;;;;;;;11.40;2.35;;;;;;;10.58;79.75;100239.03;5071919;28;20523;-51
2021/03/28 03:56:59;;;;;;;11.07;2.97;;;;;;;10.59;80.10;100235.13;5072162;28;20064;-46
2021/03/28 03:59:57;;;;;;;9.75;2.30;;;;;;;10.57;80.30;100243.75;5041581;28;20505;-47
2021/03/28 04:02:53;;;;;;;8.57;2.63;;;;;;;10.58;80.36;100244.56;5072109;28;20064;-48
2021/03/28 04:05:22;;;;;;;11.52;2.28;;;;;;;10.59;80.10;100237.88;5071633;28;20063;-48
2021/03/28 04:07:52;;;;;;;9.23;2.08;;;;;;;10.58;80.18;100244.56;5072725;28;20474;-47
2021/03/28 04:10:33;;;;;;;5.75;2.10;;;;;;;10.57;80.32;100252.06;5072266;28;20048;-47
2021/03/28 04:13:09;;;;;;;14.07;5.10;;;;;;;10.60;80.22;100259.66;5071488;28;20155;-47
2021/03/28 04:15:53;;;;;;;13.07;2.80;;;;;;;10.60;80.06;100245.00;5071473;28;20074;-49
2021/03/28 04:18:29;;;;;;;12.10;2.30;;;;;;;10.60;79.74;100256.88;5071042;28;20040;-48
2021/03/28 04:21:20;;;;;;;14.40;3.10;;;;;;;10.58;80.30;100266.72;5070002;28;20671;-47
2021/03/28 04:24:11;;;;;;;10.13;2.97;;;;;;;10.55;80.18;100257.16;5049993;28;20429;-49
2021/03/28 04:26:47;;;;;;;9.30;2.10;;;;;;;10.56;80.23;100264.31;5056627;28;20071;-50
2021/03/28 04:29:17;;;;;;;11.75;2.83;;;;;;;10.57;80.20;100260.38;5069721;28;20068;-48
2021/03/28 04:31:49;;;;;;;10.35;2.70;;;;;;;10.56;80.42;100263.50;5070228;28;20033;-48
2021/03/28 04:34:15;;;;;;;;;;;;;;;10.53;80.87;100259.47;5071235;28;20044;-47
2021/03/28 04:36:48;;;;;;;13.20;2.88;;;;;;;10.55;80.37;100265.47;5071466;28;20354;-47
2021/03/28 04:39:23;;;;;;;13.73;3.22;;;;;;;10.54;80.70;100277.69;5071235;28;20124;-47
2021/03/28 04:41:50;;;;;;;18.05;3.83;;;;;;;10.56;80.68;100278.16;5071590;28;20041;-47
2021/03/28 04:44:39;;;;;;;16.80;3.03;;;;;;;10.57;80.84;100267.84;5071258;28;20068;-48
2021/03/28 04:47:17;;;;;;;12.82;2.78;;;;;;;10.57;80.79;100276.16;5071618;28;20410;-48
2021/03/28 04:50:28;;;;;;;17.30;3.53;;;;;;;10.55;81.36;100284.03;5071830;28;20068;-46
2021/03/28 04:53:13;;;;;;;15.57;3.40;;;;;;;10.54;80.88;100276.91;5071861;28;20072;-48
2021/03/28 04:55:42;;;;;;;17.90;4.68;;;;;;;10.54;81.05;100287.97;5071558;28;20044;-48
2021/03/28 04:58:21;;;;;;;21.08;4.30;;;;;;;10.52;81.59;100285.53;5071219;28;20068;-49
2021/03/28 05:01:13;;;;;;;13.82;3.30;;;;;;;10.51;82.06;100286.69;5071232;28;20043;-47
2021/03/28 05:04:07;;;;;;;16.90;4.22;;;;;;;10.49;82.14;100293.75;5071005;28;20059;-49
2021/03/28 05:06:55;;;;;;;15.60;3.80;;;;;;;10.46;82.36;100302.78;5051701;28;20076;-49
2021/03/28 05:09:51;;;;;;;20.55;3.08;;;;;;;10.42;82.61;100293.56;5051986;28;20127;-51
2021/03/28 05:12:58;;;;;;;15.90;3.60;;;;;;;10.38;82.78;100291.50;5063219;28;20080;-49
2021/03/28 05:15:45;;;;;;;17.02;3.20;;;;;;;10.35;82.97;100292.22;5071859;28;20388;-48
2021/03/28 05:18:23;;;;;;;18.08;4.28;;;;;;;10.37;82.39;100278.84;5071398;28;20504;-47
2021/03/28 05:21:14;;;;;;;20.52;3.67;;;;;;;10.35;82.73;100281.13;5071619;28;20118;-48
2021/03/28 05:24:14;;;;;;;25.40;4.63;;;;;;;10.34;82.93;100274.03;5051898;28;20077;-49
2021/03/28 05:27:05;;;;;;;11.90;3.10;;;;;;;10.33;82.71;100283.47;5057808;28;20071;-50
2021/03/28 05:30:02;;;;;;;16.98;3.38;;;;;;;10.33;83.25;100288.19;5070834;28;20048;-51
2021/03/28 05:32:58;;;;;;;14.82;3.63;;;;;;;10.33;83.07;100293.72;5071452;28;20044;-51
2021/03/28 05:36:08;;;;;;;19.13;4.15;;;;;;;10.34;83.22;100307.22;5070652;28;20076;-52
2021/03/28 05:39:04;;;;;;;18.27;3.70;;;;;;;10.38;82.96;100283.19;5038611;28;20126;-49
2021/03/28 05:41:48;;;;;;;18.27;6.65;;;;;;;10.42;82.57;100299.91;5058434;28;20045;-48
2021/03/28 05:44:48;;;;;;;20.63;5.40;;;;;;;10.44;82.84;100294.81;5071339;28;20051;-49
2021/03/28 05:47:51;;;;;;;18.77;4.90;;;;;;;10.46;82.79;100297.25;5071643;28;20417;-51
2021/03/28 05:50:32;;;;;;;17.88;4.28;;;;;;;10.48;82.39;100306.00;5071335;28;20070;-49
2021/03/28 05:53:14;;;;;;;21.17;4.20;;;;;;;10.49;82.28;100302.84;5071053;28;20074;-48
2021/03/28 05:55:50;;;;;;;20.08;4.10;;;;;;;10.53;82.17;100314.03;5063199;28;20763;-49
2021/03/28 05:58:34;;;;;;;22.20;5.05;;;;;;;10.55;82.07;100311.72;5070617;28;20135;-49
2021/03/28 06:01:22;;;;;;;17.45;3.65;;;;;;;10.57;82.07;100321.25;5071499;28;20090;-49
2021/03/28 06:04:07;;;;;;;16.02;3.90;;;;;;;10.61;81.88;100336.00;5070822;28;20094;-49
2021/03/28 06:06:52;;;;;;;17.15;3.97;;;;;;;10.66;81.76;100334.94;5070598;28;20213;-47
2021/03/28 06:09:21;;;;;;;17.80;6.22;;;;;;;10.70;81.49;100341.38;5070569;28;20041;-50
2021/03/28 06:12:02;;;;;;;16.98;4.32;;;;;;;10.72;81.61;100342.63;5070016;28;20499;-48
2021/03/28 06:15:02;;;;;;;20.63;4.13;;;;;;;10.75;81.48;100344.66;5070849;28;20059;-49
2021/03/28 06:18:05;;;;;;;20.85;5.28;;;;;;;10.76;81.36;100339.94;5070967;28;20389;-50
2021/03/28 06:20:57;;;;;;;29.65;5.93;;;;;;;10.78;81.34;100351.47;5074118;28;20643;-49
2021/03/28 06:23:41;;;;;;;15.10;4.32;;;;;;;10.80;81.21;100349.94;5052896;28;20075;-47
2021/03/28 06:26:11;;;;;;;22.30;5.68;;;;;;;10.83;80.91;100352.00;5054587;28;20045;-48
2021/03/28 06:29:12;;;;;;;14.15;3.08;;;;;;;10.84;81.14;100366.66;5072787;28;20637;-48
2021/03/28 06:31:53;;;;;;;18.17;4.55;;;;;;;10.87;80.88;100354.88;5071890;28;20471;-50
2021/03/28 06:35:01;;;;;;;19.40;3.33;;;;;;;10.86;80.89;100367.91;5071748;28;20086;-50
2021/03/28 06:37:58;;;;;;;17.30;3.45;;;;;;;10.87;80.94;100363.19;5072287;28;20078;-47
2021/03/28 06:40:42;;;;;;;17.48;3.50;;;;;;;10.90;80.74;100373.56;5073699;28;20068;-48
2021/03/28 06:43:09;;;;;;;21.58;3.70;;;;;;;10.91;80.55;100377.91;5073710;28;20053;-49
2021/03/28 06:46:03;;;;;;;30.80;5.95;;;;;;;10.93;80.75;100379.16;5070881;28;20465;-49
2021/03/28 06:48:47;;;;;;;19.63;3.58;;;;;;;10.96;80.55;100378.47;5065141;28;20129;-47
2021/03/28 06:51:43;;;;;;;12.15;4.07;;;;;;;10.98;80.41;100369.81;5054095;28;20040;-48
2021/03/28 06:54:27;;;;;;;12.13;4.03;;;;;;;10.98;80.46;100369.81;5055181;28;20502;-48
2021/03/28 06:57:06;;;;;;;20.35;4.68;;;;;;;11.00;80.38;100382.13;5073741;28;20079;-47
2021/03/28 06:59:48;;;;;;;15.90;3.08;;;;;;;11.04;80.15;100384.19;5074020;28;20045;-47
2021/03/28 07:02:30;;;;;;;18.50;3.63;;;;;;;11.06;80.13;100392.94;5073578;28;20048;-47
2021/03/28 07:04:56;;;;;;;8.25;2.35;;;;;;;11.09;80.21;100386.69;5073753;28;20049;-47
2021/03/28 07:07:39;;;;;;;15.85;3.40;;;;;;;11.11;80.21;100390.72;5073930;28;20036;-48
2021/03/28 07:10:39;;;;;;;21.48;3.58;;;;;;;11.14;80.11;100389.19;5072720;28;20041;-48
2021/03/28 07:13:14;;;;;;;14.50;2.65;;;;;;;11.16;79.98;100387.69;5073122;28;20080;-46
2021/03/28 07:16:01;;;;;;;13.48;3.60;;;;;;;11.17;80.12;100377.41;5073834;28;20127;-47
2021/03/28 07:18:59;;;;;;;15.32;3.30;;;;;;;11.18;80.13;100390.88;5073752;28;20064;-47
2021/03/28 07:21:46;;;;;;;15.30;2.97;;;;;;;11.20;80.25;100402.41;5073596;28;20036;-47
2021/03/28 07:24:50;;;;;;;18.20;3.72;;;;;;;11.24;80.25;100411.63;5073584;28;20094;-47
2021/03/28 07:27:34;;;;;;;13.60;3.08;;;;;;;11.25;80.33;100410.47;5072851;28;20049;-47
2021/03/28 07:30:23;;;;;;;8.80;2.13;;;;;;;11.28;80.23;100412.50;5071399;28;20052;-47
2021/03/28 07:33:20;;;;;;;17.48;2.65;;;;;;;11.31;80.39;100417.34;5073025;28;20082;-49
2021/03/28 07:36:12;;;;;;;10.45;2.72;;;;;;;11.34;80.28;100438.00;5072743;28;20131;-47
2021/03/28 07:39:29;;;;;;;17.10;2.53;;;;;;;11.36;80.42;100442.03;5088302;28;20110;-48
2021/03/28 07:42:34;;;;;;;11.95;3.47;;;;;;;11.40;80.45;100423.53;5070058;28;20051;-48
2021/03/28 07:45:36;;;;;;;13.50;3.70;;;;;;;11.43;80.20;100450.53;5072310;28;20072;-52
2021/03/28 07:48:29;;;;;;;18.13;3.53;;;;;;;11.48;80.23;100455.81;5072833;28;20051;-47
2021/03/28 07:51:14;;;;;;;12.70;3.15;;;;;;;11.52;79.98;100456.69;5073325;28;20144;-48
2021/03/28 07:53:49;;;;;;;14.43;3.22;;;;;;;11.59;79.85;100465.19;5072813;28;20079;-48
2021/03/28 07:56:21;;;;;;;11.18;2.70;;;;;;;11.63;79.75;100474.38;5072431;28;20131;-46
2021/03/28 07:59:11;;;;;;;16.17;3.03;;;;;;;11.68;79.55;100467.75;5072214;28;20075;-47
2021/03/28 08:01:56;;;;;;;15.13;3.03;;;;;;;11.69;79.29;100471.38;5072523;28;20036;-47
2021/03/28 08:04:41;;;;;;;10.45;2.97;;;;;;;11.66;79.40;100472.06;5071803;28;20121;-49
2021/03/28 08:07:19;;;;;;;9.18;2.42;;;;;;;11.61;79.32;100476.72;5053461;28;20053;-51
2021/03/28 08:10:16;;;;;;;15.88;3.22;;;;;;;11.59;79.29;100473.50;5051949;28;20478;-47
2021/03/28 08:13:32;;;;;;;11.40;3.35;;;;;;;11.60;79.26;100463.19;5059195;28;20159;-48
2021/03/28 08:16:34;;;;;;;16.70;2.63;;;;;;;11.59;79.10;100476.28;5050449;28;20079;-48
2021/03/28 08:19:06;;;;;;;14.98;2.75;;;;;;;11.60;79.13;100477.06;5028786;28;20061;-49
2021/03/28 08:21:43;;;;;;;;;;;;;;;11.59;79.21;100483.78;5055169;28;20063;-47
2021/03/28 08:24:37;;;;;;;15.07;4.05;;;;;;;11.59;79.22;100473.50;5070505;28;19924;-47
2021/03/28 08:27:38;;;;;;;15.93;2.97;;;;;;;11.62;79.16;100483.88;5069926;28;20052;-47
2021/03/28 08:30:22;;;;;;;10.98;2.85;;;;;;;11.63;79.01;100479.94;5068709;28;20123;-50
2021/03/28 08:33:29;;;;;;;16.13;4.88;;;;;;;11.69;78.99;100482.47;5068522;28;20076;-48
2021/03/28 08:36:01;;;;;;;20.52;5.38;;;;;;;11.74;78.66;100490.50;5051278;28;20151;-52
2021/03/28 08:38:47;;;;;;;14.02;4.13;;;;;;;11.82;78.53;100468.16;5063907;28;20405;-48
2021/03/28 08:41:41;;;;;;;10.95;2.78;;;;;;;11.90;78.34;100505.97;5067913;28;20127;-49
2021/03/28 08:44:44;;;;;;;20.20;3.00;;;;;;;11.94;77.76;100490.22;5065651;28;20060;-48
2021/03/28 08:47:26;;;;;;;16.55;4.28;;;;;;;11.97;77.43;100483.13;5069966;28;20052;-48
2021/03/28 08:50:01;;;;;;;22.05;6.22;;;;;;;12.00;77.37;100496.28;5067200;28;20048;-49
2021/03/28 08:52:48;;;;;;;17.98;4.20;;;;;;;12.02;77.05;100474.56;5068220;28;20098;-49
2021/03/28 08:55:29;;;;;;;17.55;3.15;;;;;;;12.05;77.01;100493.25;5067794;28;20137;-47
2021/03/28 08:58:21;;;;;;;10.65;3.17;;;;;;;12.06;76.34;100504.00;5068304;28;20494;-47
2021/03/28 09:01:03;;;;;;;13.02;3.50;;;;;;;12.13;76.35;100504.16;5068813;28;20119;-48
2021/03/28 09:04:07;;;;;;;22.90;4.63;;;;;;;12.25;76.06;100510.75;5063840;28;20051;-49
2021/03/28 09:06:42;;;;;;;13.98;2.88;;;;;;;12.35;75.91;100499.88;5066638;28;20493;-49
2021/03/28 09:09:27;;;;;;;28.58;3.97;;;;;;;12.46;75.75;100514.81;5069368;28;20045;-50
2021/03/28 09:12:16;;;;;;;15.35;3.53;;;;;;;12.54;75.45;100521.31;5068613;28;20048;-49
2021/03/28 09:15:15;;;;;;;10.95;3.55;;;;;;;12.67;74.58;100528.34;5069674;28;20102;-49
2021/03/28 09:17:58;;;;;;;21.85;5.03;;;;;;;12.82;74.62;100519.13;5049622;28;20044;-49
2021/03/28 09:20:54;;;;;;;11.85;3.20;;;;;;;12.97;75.12;100520.25;5049451;28;20131;-50
2021/03/28 09:23:38;;;;;;;13.27;3.17;;;;;;;13.13;74.81;100529.34;5049702;28;20067;-52
2021/03/28 09:26:47;;;;;;;17.67;3.20;;;;;;;13.30;73.22;100532.44;5068961;28;20114;-49
2021/03/28 09:29:44;;;;;;;19.75;3.88;;;;;;;13.40;72.48;100522.69;4996462;28;20054;-56
2021/03/28 09:32:37;;;;;;;23.88;5.65;;;;;;;13.52;72.27;100536.44;5067862;28;20123;-50
2021/03/28 09:35:07;;;;;;;12.60;3.05;;;;;;;13.56;72.77;100531.72;5068938;28;20141;-51
2021/03/28 09:38:03;;;;;;;13.98;3.17;;;;;;;13.56;72.90;100533.69;5068816;28;20169;-51
2021/03/28 09:40:52;;;;;;;12.88;3.38;;;;;;;13.59;71.72;100525.41;5052401;28;20045;-50
2021/03/28 09:44:00;;;;;;;23.85;3.83;;;;;;;13.60;70.71;100537.34;5049166;28;20063;-50
2021/03/28 09:46:47;;;;;;;14.00;3.85;;;;;;;13.64;71.13;100544.56;5035677;28;20085;-51
2021/03/28 09:49:32;;;;;;;11.25;2.70;;;;;;;13.77;70.98;100540.44;5062540;28;20106;-54
2021/03/28 09:52:24;;;;;;;11.10;3.20;;;;;;;13.99;70.72;100544.38;5049894;28;20040;-49
2021/03/28 09:55:19;;;;;;;16.42;3.35;;;;;;;14.01;70.67;100553.16;5065288;28;20405;-56
2021/03/28 09:58:39;;;;;;;14.93;3.65;;;;;;;13.92;70.38;100559.00;5071493;28;20059;-52
2021/03/28 10:01:11;;;;;;;16.77;4.50;;;;;;;13.95;71.24;100549.09;5071478;28;20097;-52
2021/03/28 10:03:56;;;;;;;12.20;4.20;;;;;;;14.34;71.00;100544.97;5070195;28;20049;-49
2021/03/28 10:06:27;;;;;;;17.00;3.30;;;;;;;14.72;70.91;100560.63;5068539;28;20072;-54
2021/03/28 10:08:59;;;;;;;14.68;3.50;;;;;;;14.84;69.21;100545.66;5071908;28;20064;-55
2021/03/28 10:11:28;;;;;;;10.32;2.60;;;;;;;15.01;69.83;100554.22;5070882;28;20036;-54
2021/03/28 10:14:16;;;;;;;10.02;2.75;;;;;;;15.23;67.86;100558.06;5071462;28;20047;-51
2021/03/28 10:17:20;;;;;;;12.52;3.13;;;;;;;15.36;67.21;100558.63;5072645;28;20059;-54
2021/03/28 10:19:52;;;;;;;11.23;2.85;;;;;;;15.48;68.43;100553.63;5071741;28;20163;-55
2021/03/28 10:22:24;;;;;;;14.10;2.78;;;;;;;15.65;66.79;100558.56;5071981;28;20064;-52
2021/03/28 10:25:06;;;;;;;;;;;;;;;15.88;66.06;100555.59;5072709;28;20097;-56
2021/03/28 10:28:00;;;;;;;10.48;2.95;;;;;;;15.95;65.66;100552.06;5068641;28;20027;-52
2021/03/28 10:30:43;;;;;;;12.20;3.28;;;;;;;15.94;63.90;100542.09;5071892;28;20098;-52
2021/03/28 10:33:47;;;;;;;10.98;2.60;;;;;;;15.96;65.17;100562.84;5069311;28;20059;-50
2021/03/28 10:36:36;;;;;;;9.90;2.05;;;;;;;16.15;63.44;100537.44;5060908;28;20044;-57
2021/03/28 10:39:28;;;;;;;10.73;2.65;;;;;;;16.12;62.46;100554.19;5012329;28;20045;-56
2021/03/28 10:42:43;;;;;;;11.60;2.40;;;;;;;16.23;63.41;100546.72;5041162;28;20041;-56
2021/03/28 10:45:22;;;;;;;9.82;1.95;;;;;;;16.49;62.06;100551.28;5033614;28;20302;-52
2021/03/28 10:47:51;;;;;;;7.82;2.00;;;;;;;16.56;63.49;100559.72;5050529;28;20045;-53
2021/03/28 10:50:59;;;;;;;10.90;3.35;;;;;;;16.68;61.32;100539.84;5049764;28;20476;-53
2021/03/28 10:53:47;;;;;;;14.45;2.38;;;;;;;16.49;62.38;100554.06;5059235;28;20045;-54
2021/03/28 10:56:52;;;;;;;9.85;2.38;;;;;;;16.22;62.03;100543.13;5049946;28;20055;-53
2021/03/28 10:59:48;;;;;;;10.23;3.97;;;;;;;16.21;62.53;100538.69;5049640;28;20044;-51
2021/03/28 11:02:55;;;;;;;15.75;5.72;;;;;;;16.33;62.42;100532.81;5051268;28;20132;-52
2021/03/28 11:05:33;;;;;;;9.45;2.35;;;;;;;16.32;63.07;100547.16;5021242;28;20614;-55
2021/03/28 11:08:44;;;;;;;12.98;3.05;;;;;;;16.10;62.25;100542.59;5050624;28;20033;-55
2021/03/28 11:11:38;;;;;;;8.30;2.38;;;;;;;15.99;62.70;100539.72;5006895;28;20064;-52
2021/03/28 11:14:26;;;;;;;10.85;2.33;;;;;;;15.96;63.68;100526.56;5052054;28;20048;-54
2021/03/28 11:17:01;;;;;;;10.27;2.88;;;;;;;15.96;64.00;100518.19;5052158;28;20041;-50
2021/03/28 11:19:46;;;;;;;6.90;1.73;;;;;;;15.89;63.16;100523.69;5050106;28;20099;-56
2021/03/28 11:22:34;;;;;;;8.30;2.10;;;;;;;15.76;63.60;100520.41;5051175;28;20045;-55
2021/03/28 11:25:29;;;;;;;8.27;1.63;;;;;;;15.67;63.97;100527.50;5051172;28;20056;-55
2021/03/28 11:28:13;;;;;;;6.93;1.50;;;;;;;15.63;64.12;100527.44;5052217;28;20091;-51
2021/03/28 11:30:42;;;;;;;8.38;1.60;;;;;;;15.61;64.35;100512.28;5050724;28;20040;-53
2021/03/28 11:33:18;;;;;;;6.00;1.65;;;;;;;15.55;64.48;100519.38;5049642;28;20103;-57
2021/03/28 11:35:54;;;;;;;7.07;1.60;;;;;;;15.45;64.55;100515.28;5054825;28;20056;-53
2021/03/28 11:38:20;;;;;;;5.00;1.27;;;;;;;15.46;64.88;100516.91;5069771;28;20071;-50
2021/03/28 11:41:11;;;;;;;3.17;1.52;;;;;;;15.50;64.94;100517.75;5064781;28;20088;-53
2021/03/28 11:44:04;;;;;;;7.15;1.77;;;;;;;15.50;64.78;100511.38;5064712;28;20090;-53
2021/03/28 11:47:19;;;;;;;7.63;2.50;;;;;;;15.35;64.78;100499.25;5071052;28;20064;-52
2021/03/28 11:50:13;;;;;;;4.57;1.42;;;;;;;15.24;65.32;100481.59;5069106;28;20123;-53
2021/03/28 11:53:01;;;;;;;5.47;1.90;;;;;;;15.21;65.55;100505.50;5071125;28;20773;-53
2021/03/28 11:55:36;;;;;;;4.68;1.35;;;;;;;15.29;65.49;100488.81;5070377;28;20064;-53
2021/03/28 11:58:55;;;;;;;11.20;1.98;;;;;;;15.39;65.38;100491.72;5070478;28;20131;-51
2021/03/28 12:02:01;;;;;;;4.32;1.45;;;;;;;15.48;65.52;100480.28;5057302;28;20095;-54
2021/03/28 12:04:27;;;;;;;4.57;1.20;;;;;;;15.55;65.43;100458.00;5059117;28;20080;-53
2021/03/28 12:07:40;;;;;;;5.95;1.67;;;;;;;15.76;65.44;100472.94;5070747;28;20124;-51
2021/03/28 12:10:06;;;;;;;4.82;1.40;;;;;;;15.87;65.06;100463.84;5061749;28;20169;-57
2021/03/28 12:13:32;;;;;;;6.05;1.20;;;;;;;16.08;64.51;100475.97;5068776;28;20072;-58
2021/03/28 12:16:02;;;;;;;5.05;1.17;;;;;;;16.16;64.95;100476.81;5007768;28;20049;-58
2021/03/28 12:18:29;;;;;;;2.10;0.68;;;;;;;16.22;64.66;100467.69;5007703;28;20499;-58
2021/03/28 12:20:58;;;;;;;3.88;0.50;;;;;;;16.25;64.44;100461.31;5048583;28;20063;-57
2021/03/28 12:23:30;;;;;;;3.22;0.95;;;;;;;16.24;63.92;100462.50;5061423;28;20157;-56
2021/03/28 12:26:15;;;;;;;2.47;0.57;;;;;;;16.15;63.98;100467.63;5068391;28;20044;-57
2021/03/28 12:28:44;;;;;;;0.90;0.40;;;;;;;15.95;64.32;100457.94;5050773;28;20037;-55
2021/03/28 12:31:42;;;;;;;0.63;0.35;;;;;;;15.79;64.66;100432.28;5056248;28;20048;-57
2021/03/28 12:34:11;;;;;;;0.75;0.20;;;;;;;15.65;65.09;100465.66;5065649;28;20106;-58
2021/03/28 12:37:01;;;;;;;0.63;0.30;;;;;;;15.58;65.55;100454.44;5058864;28;20125;-51
2021/03/28 12:39:35;;;;;;;4.07;0.40;;;;;;;15.60;65.88;100443.69;5049840;28;20048;-53
2021/03/28 12:42:01;;;;;;;1.30;0.30;;;;;;;15.67;65.86;100443.78;5069553;28;20044;-54
2021/03/28 12:44:36;;;;;;;0.70;0.30;;;;;;;15.82;65.78;100448.25;5052993;28;20486;-53
2021/03/28 12:47:05;;;;;;;0.68;0.40;;;;;;;15.89;65.63;100439.94;5052119;28;20144;-52
2021/03/28 12:49:42;;;;;;;3.05;1.27;;;;;;;15.91;65.81;100445.94;5068778;28;20071;-52